createdAt,value
2022-11-05T00:00:31.062Z,2266.67
2022-11-05T00:03:17.497Z,2266.67
2022-11-05T00:06:03.827Z,2266.67
2022-11-05T00:08:49.442Z,2266.67
2022-11-05T00:11:18.452Z,2266.67
2022-11-05T00:14:03.805Z,2266.67
2022-11-05T00:16:46.580Z,2266.67
2022-11-05T00:19:16.721Z,2266.67
2022-11-05T00:22:01.770Z,2266.67
2022-11-05T00:24:47.001Z,2266.67
2022-11-05T00:27:15.000Z,2266.67
2022-11-05T00:29:42.834Z,2266.67
2022-11-05T00:32:10.622Z,2266.67
2022-11-05T00:34:39.876Z,2266.67
2022-11-05T00:37:07.739Z,2266.67
2022-11-05T00:39:35.535Z,2266.67
2022-11-05T00:42:20.925Z,2266.67
2022-11-05T00:45:01.879Z,2266.67
2022-11-05T00:47:48.131Z,2266.67
2022-11-05T00:50:18.107Z,2266.67
2022-11-05T00:52:59.266Z,2266.67
2022-11-05T00:55:30.997Z,2266.67
2022-11-05T00:57:58.953Z,2266.67
2022-11-05T01:00:29.572Z,1721.40
2022-11-05T01:03:02.422Z,1723.10
2022-11-05T01:05:33.089Z,2266.67
2022-11-05T01:08:02.137Z,1721.13
2022-11-05T01:10:30.634Z,1724.50
2022-11-05T01:12:59.047Z,1719.43
2022-11-05T01:15:26.939Z,602.63
2022-11-05T01:17:54.790Z,1784.97
2022-11-05T01:20:22.614Z,1773.43
2022-11-05T01:22:51.825Z,641.43
2022-11-05T01:25:19.789Z,1777.77
2022-11-05T01:27:47.675Z,1775.80
2022-11-05T01:30:15.662Z,1796.10
2022-11-05T01:32:43.484Z,781.00
2022-11-05T01:35:15.846Z,1834.70
2022-11-05T01:37:44.117Z,814.43
2022-11-05T01:40:15.993Z,909.27
2022-11-05T01:42:43.904Z,1803.53
2022-11-05T01:45:16.412Z,906.77
2022-11-05T01:47:52.392Z,905.40
2022-11-05T01:50:32.252Z,1863.10
2022-11-05T01:53:05.970Z,1828.07
2022-11-05T01:55:39.264Z,890.40
2022-11-05T01:58:10.627Z,830.70
2022-11-05T02:00:38.923Z,886.87
2022-11-05T02:03:06.898Z,909.77
2022-11-05T02:05:35.651Z,1001.93
2022-11-05T02:08:04.112Z,975.43
2022-11-05T02:10:33.054Z,952.07
2022-11-05T02:13:03.634Z,1824.50
2022-11-05T02:15:40.999Z,870.67
2022-11-05T02:18:20.705Z,1843.50
2022-11-05T02:20:55.234Z,1800.03
2022-11-05T02:23:54.587Z,961.37
2022-11-05T02:27:00.800Z,1807.90
2022-11-05T02:30:07.343Z,692.73
2022-11-05T02:32:58.307Z,1675.00
2022-11-05T02:35:43.451Z,2266.67
2022-11-05T02:38:18.971Z,1755.53
2022-11-05T02:40:55.729Z,1802.40
2022-11-05T02:43:32.950Z,1757.23
2022-11-05T02:46:07.724Z,1842.33
2022-11-05T02:48:46.979Z,1123.53
2022-11-05T02:51:23.290Z,1763.23
2022-11-05T02:53:59.141Z,839.40
2022-11-05T02:56:31.476Z,1849.63
2022-11-05T02:58:59.703Z,896.90
2022-11-05T03:01:27.577Z,892.30
2022-11-05T03:04:00.497Z,1032.37
2022-11-05T03:06:58.407Z,1135.27
2022-11-05T03:09:38.746Z,1851.00
2022-11-05T03:12:19.877Z,1887.53
2022-11-05T03:14:58.481Z,1032.33
2022-11-05T03:17:35.332Z,1887.10
2022-11-05T03:20:14.164Z,1002.70
2022-11-05T03:22:45.867Z,851.23
2022-11-05T03:25:18.819Z,1108.17
2022-11-05T03:27:50.238Z,1085.93
2022-11-05T03:30:19.986Z,1311.60
2022-11-05T03:32:50.967Z,1043.90
2022-11-05T03:35:24.812Z,1152.70
2022-11-05T03:37:57.869Z,1250.10
2022-11-05T03:40:27.265Z,1107.23
2022-11-05T03:42:59.048Z,1122.30
2022-11-05T03:45:31.778Z,1140.27
2022-11-05T03:48:02.734Z,1952.67
2022-11-05T03:50:41.297Z,1218.43
2022-11-05T03:53:16.149Z,1211.53
2022-11-05T03:55:52.366Z,1091.30
2022-11-05T03:58:22.599Z,1931.57
2022-11-05T04:00:51.849Z,1907.07
2022-11-05T04:03:19.682Z,1064.37
2022-11-05T04:06:09.285Z,1233.03
2022-11-05T04:08:51.051Z,850.30
2022-11-05T04:11:36.498Z,1037.73
2022-11-05T04:14:04.350Z,945.17
2022-11-05T04:16:49.540Z,1287.13
2022-11-05T04:19:37.492Z,1071.87
2022-11-05T04:22:24.210Z,1061.20
2022-11-05T04:24:52.044Z,951.17
2022-11-05T04:27:19.858Z,1364.30
2022-11-05T04:30:05.188Z,1476.80
2022-11-05T04:32:32.962Z,1326.50
2022-11-05T04:35:00.896Z,1488.67
2022-11-05T04:37:30.094Z,1431.03
2022-11-05T04:39:57.941Z,1411.97
2022-11-05T04:42:25.926Z,1362.20
2022-11-05T04:44:53.777Z,1739.37
2022-11-05T04:47:21.635Z,1118.87
2022-11-05T04:49:49.424Z,1340.90
2022-11-05T04:52:17.923Z,1328.43
2022-11-05T04:54:47.115Z,1238.13
2022-11-05T04:57:14.942Z,1290.00
2022-11-05T04:59:42.714Z,1272.20
2022-11-05T05:02:10.581Z,1398.33
2022-11-05T05:04:38.402Z,1271.20
2022-11-05T05:07:06.226Z,1335.37
2022-11-05T05:09:34.022Z,1409.03
2022-11-05T05:12:03.532Z,1510.73
2022-11-05T05:14:31.375Z,1328.80
2022-11-05T05:16:59.237Z,1457.10
2022-11-05T05:19:27.420Z,1464.47
2022-11-05T05:21:54.296Z,1699.93
2022-11-05T05:24:25.005Z,1763.03
2022-11-05T05:26:52.912Z,1404.90
2022-11-05T05:29:22.119Z,1528.73
2022-11-05T05:31:49.936Z,1401.63
2022-11-05T05:34:17.761Z,1511.23
2022-11-05T05:36:45.563Z,1397.30
2022-11-05T05:39:14.257Z,1532.97
2022-11-05T05:41:42.054Z,1670.50
2022-11-05T05:44:09.908Z,1398.00
2022-11-05T05:46:39.157Z,1567.90
2022-11-05T05:49:12.195Z,1659.27
2022-11-05T05:51:40.405Z,1853.60
2022-11-05T05:54:08.358Z,1800.07
2022-11-05T05:56:36.174Z,1809.50
2022-11-05T05:59:05.674Z,1826.10
2022-11-05T06:01:33.592Z,1853.87
2022-11-05T06:04:02.863Z,1883.53
2022-11-05T06:06:30.766Z,1824.77
2022-11-05T06:08:58.568Z,1823.63
2022-11-05T06:11:26.653Z,1867.30
2022-11-05T06:13:54.421Z,1830.43
2022-11-05T06:16:22.352Z,1848.57
2022-11-05T06:18:50.434Z,1876.70
2022-11-05T06:21:19.645Z,1865.40
2022-11-05T06:23:49.100Z,1876.77
2022-11-05T06:26:18.605Z,1866.93
2022-11-05T06:28:47.148Z,1877.23
2022-11-05T06:31:15.915Z,1945.70
2022-11-05T06:33:43.757Z,1899.07
2022-11-05T06:36:15.937Z,1947.47
2022-11-05T06:38:45.108Z,1911.83
2022-11-05T06:41:12.963Z,1865.70
2022-11-05T06:43:40.981Z,1856.30
2022-11-05T06:46:09.448Z,1985.00
2022-11-05T06:48:37.427Z,1882.00
2022-11-05T06:51:06.834Z,1917.60
2022-11-05T06:53:35.387Z,1895.00
2022-11-05T06:56:05.514Z,1869.30
2022-11-05T06:58:33.900Z,1979.27
2022-11-05T07:01:02.919Z,1841.43
2022-11-05T07:03:30.931Z,2023.33
2022-11-05T07:06:00.334Z,1889.10
2022-11-05T07:08:28.621Z,1977.50
2022-11-05T07:10:56.438Z,1914.13
2022-11-05T07:13:26.506Z,1863.47
2022-11-05T07:15:54.365Z,1836.63
2022-11-05T07:18:22.417Z,1952.43
2022-11-05T07:20:50.522Z,1863.20
2022-11-05T07:23:18.394Z,1973.07
2022-11-05T07:25:46.205Z,1931.90
2022-11-05T07:28:15.038Z,1993.77
2022-11-05T07:30:44.449Z,1897.07
2022-11-05T07:33:12.617Z,1844.60
2022-11-05T07:35:40.709Z,1826.70
2022-11-05T07:38:09.587Z,1854.77
2022-11-05T07:40:37.474Z,1957.47
2022-11-05T07:43:05.286Z,1856.07
2022-11-05T07:45:33.210Z,1906.93
2022-11-05T07:48:04.166Z,1872.57
2022-11-05T07:50:34.332Z,1988.30
2022-11-05T07:53:02.338Z,1922.40
2022-11-05T07:55:30.814Z,1850.63
2022-11-05T07:57:58.946Z,1981.00
2022-11-05T08:00:28.736Z,1913.17
2022-11-05T08:03:07.851Z,1932.57
2022-11-05T08:05:37.642Z,1779.63
2022-11-05T08:08:06.423Z,1921.17
2022-11-05T08:10:34.975Z,1860.97
2022-11-05T08:13:03.066Z,1912.80
2022-11-05T08:15:31.437Z,1878.97
2022-11-05T08:17:59.817Z,1870.43
2022-11-05T08:20:29.564Z,1870.97
2022-11-05T08:22:57.970Z,1828.83
2022-11-05T08:25:26.355Z,1875.07
2022-11-05T08:27:58.808Z,2107.30
2022-11-05T08:30:26.893Z,1902.37
2022-11-05T08:32:58.507Z,2037.37
2022-11-05T08:35:26.764Z,1928.00
2022-11-05T08:37:59.089Z,1939.03
2022-11-05T08:40:27.615Z,1851.33
2022-11-05T08:42:58.088Z,1901.30
2022-11-05T08:45:25.930Z,1850.07
2022-11-05T08:47:59.885Z,1783.20
2022-11-05T08:50:28.117Z,1875.33
2022-11-05T08:52:55.961Z,1735.03
2022-11-05T08:55:26.662Z,1733.80
2022-11-05T08:57:58.239Z,1839.53
2022-11-05T09:00:26.746Z,1674.27
2022-11-05T09:02:54.594Z,1773.47
2022-11-05T09:05:22.468Z,1808.40
2022-11-05T09:07:50.287Z,1863.77
2022-11-05T09:10:18.086Z,1762.30
2022-11-05T09:12:47.253Z,1820.47
2022-11-05T09:15:15.062Z,1779.33
2022-11-05T09:17:42.973Z,1627.13
2022-11-05T09:20:12.854Z,1717.27
2022-11-05T09:22:43.494Z,1989.37
2022-11-05T09:25:11.732Z,1658.57
2022-11-05T09:27:39.573Z,1607.63
2022-11-05T09:30:11.495Z,1702.97
2022-11-05T09:32:39.430Z,1825.43
2022-11-05T09:35:08.299Z,1578.10
2022-11-05T09:37:37.357Z,1506.20
2022-11-05T09:40:06.387Z,1744.57
2022-11-05T09:42:38.556Z,1686.07
2022-11-05T09:45:11.030Z,1689.93
2022-11-05T09:47:44.721Z,1626.37
2022-11-05T09:50:18.314Z,1671.10
2022-11-05T09:52:46.321Z,1481.70
2022-11-05T09:55:21.884Z,1559.53
2022-11-05T09:57:55.588Z,1606.17
2022-11-05T10:00:24.784Z,1596.13
2022-11-05T10:02:56.389Z,1536.60
2022-11-05T10:05:26.250Z,1611.33
2022-11-05T10:07:58.485Z,1506.10
2022-11-05T10:10:39.386Z,1609.53
2022-11-05T10:13:18.948Z,1532.37
2022-11-05T10:15:56.369Z,1614.93
2022-11-05T10:18:29.239Z,1657.90
2022-11-05T10:20:57.702Z,1878.83
2022-11-05T10:23:27.582Z,1502.47
2022-11-05T10:26:01.185Z,1422.20
2022-11-05T10:28:31.673Z,890.60
2022-11-05T10:31:03.821Z,1063.97
2022-11-05T10:33:35.532Z,924.53
2022-11-05T10:36:07.068Z,1647.83
2022-11-05T10:38:35.063Z,2266.67
2022-11-05T10:41:28.776Z,2266.67
2022-11-05T10:44:06.052Z,2266.67
2022-11-05T10:46:41.511Z,2266.67
2022-11-05T10:49:24.343Z,2266.67
2022-11-05T10:51:56.592Z,2266.67
2022-11-05T10:54:31.139Z,2266.67
2022-11-05T10:56:59.119Z,2266.67
2022-11-05T10:59:29.147Z,2266.67
2022-11-05T11:02:01.970Z,2266.67
2022-11-05T11:04:37.416Z,2266.67
2022-11-05T11:07:06.052Z,2266.67
2022-11-05T11:09:37.235Z,2266.67
2022-11-05T11:12:08.447Z,2266.67
2022-11-05T11:14:36.329Z,2266.67
2022-11-05T11:17:26.631Z,2266.67
2022-11-05T11:20:20.419Z,2266.67
2022-11-05T11:23:00.687Z,2266.67
2022-11-05T11:25:30.552Z,2266.67
2022-11-05T11:28:04.411Z,2266.67
2022-11-05T11:30:33.737Z,2266.67
2022-11-05T11:33:07.762Z,2266.67
2022-11-05T11:35:38.725Z,2266.67
2022-11-05T11:38:07.908Z,2266.67
2022-11-05T11:40:39.058Z,2266.67
2022-11-05T11:43:14.875Z,2266.67
2022-11-05T11:45:47.757Z,2266.67
2022-11-05T11:48:19.548Z,2266.67
2022-11-05T11:50:48.945Z,2266.67
2022-11-05T11:53:29.629Z,2266.67
2022-11-05T11:56:03.379Z,2266.67
2022-11-05T11:58:41.562Z,2266.67
2022-11-05T12:01:39.550Z,2266.67
2022-11-05T12:04:20.701Z,2266.67
2022-11-05T12:06:56.659Z,2266.67
2022-11-05T12:09:33.736Z,2266.67
2022-11-05T12:12:05.986Z,2266.67
2022-11-05T12:14:46.449Z,2266.67
2022-11-05T12:17:39.884Z,2266.67
2022-11-05T12:20:31.081Z,2266.67
2022-11-05T12:23:27.758Z,2266.67
2022-11-05T12:26:04.491Z,2266.67
2022-11-05T12:29:16.520Z,2266.67
2022-11-05T12:31:43.655Z,2266.67
2022-11-05T12:34:27.258Z,2266.67
2022-11-05T12:37:11.657Z,2266.67
2022-11-05T12:40:00.951Z,2266.67
2022-11-05T12:42:45.783Z,2266.67
2022-11-05T12:45:29.519Z,2266.67
2022-11-05T12:48:11.943Z,2266.67
2022-11-05T12:50:45.252Z,2266.67
2022-11-05T12:53:38.279Z,2266.67
2022-11-05T12:56:13.468Z,2266.67
2022-11-05T12:58:46.389Z,2266.67
2022-11-05T13:01:18.856Z,2266.67
2022-11-05T13:03:51.696Z,2266.67
2022-11-05T13:06:25.224Z,2266.67
2022-11-05T13:09:01.200Z,2266.67
2022-11-05T13:11:34.598Z,2266.67
2022-11-05T13:14:12.306Z,2266.67
2022-11-05T13:16:44.463Z,2266.67
2022-11-05T13:19:20.107Z,2266.67
2022-11-05T13:21:53.091Z,2266.67
2022-11-05T13:24:25.803Z,2266.67
2022-11-05T13:26:57.778Z,2266.67
2022-11-05T13:29:32.515Z,2266.67
2022-11-05T13:32:05.806Z,2266.67
2022-11-05T13:34:37.556Z,2266.67
2022-11-05T13:37:26.018Z,2266.67
2022-11-05T13:39:58.240Z,2266.67
2022-11-05T13:43:02.788Z,2266.67
2022-11-05T13:45:49.268Z,2266.67
2022-11-05T13:48:46.118Z,2266.67
2022-11-05T13:51:39.149Z,2266.67
2022-11-05T13:54:43.020Z,2266.67
2022-11-05T13:57:36.934Z,2266.67
2022-11-05T14:00:12.450Z,2266.67
2022-11-05T14:02:44.447Z,2266.67
2022-11-05T14:05:33.049Z,2266.67
2022-11-05T14:08:08.731Z,2266.67
2022-11-05T14:10:39.354Z,2266.67
2022-11-05T14:13:21.731Z,2266.67
2022-11-05T14:16:01.650Z,2266.67
2022-11-05T14:18:44.673Z,2266.67
2022-11-05T14:21:45.620Z,2266.67
2022-11-05T14:24:26.998Z,2266.67
2022-11-05T14:27:32.355Z,2266.67
2022-11-05T14:30:01.772Z,2266.67
2022-11-05T14:32:44.632Z,2266.67
2022-11-05T14:35:38.518Z,2266.67
2022-11-05T14:38:20.831Z,2266.67
2022-11-05T14:41:00.294Z,2266.67
2022-11-05T14:43:33.345Z,2266.67
2022-11-05T14:46:07.086Z,2266.67
2022-11-05T14:48:40.956Z,2266.67
2022-11-05T14:51:27.694Z,2266.67
2022-11-05T14:54:04.067Z,2266.67
2022-11-05T14:56:44.387Z,2266.67
2022-11-05T14:59:50.101Z,2266.67
2022-11-05T15:02:25.706Z,2266.67
2022-11-05T15:05:28.755Z,2266.67
2022-11-05T15:07:59.681Z,2266.67
2022-11-05T15:10:32.943Z,2266.67
2022-11-05T15:13:04.569Z,2266.67
2022-11-05T15:15:43.549Z,2266.67
2022-11-05T15:18:18.473Z,2266.67
2022-11-05T15:20:50.282Z,2266.67
2022-11-05T15:23:22.562Z,2266.67
2022-11-05T15:26:03.214Z,2266.67
2022-11-05T15:28:37.872Z,2266.67
2022-11-05T15:31:24.498Z,2266.67
2022-11-05T15:34:16.486Z,2266.67
2022-11-05T15:36:52.911Z,2266.67
2022-11-05T15:39:33.346Z,2266.67
2022-11-05T15:42:07.000Z,2266.67
2022-11-05T15:44:41.140Z,1652.37
2022-11-05T15:47:20.701Z,2266.67
2022-11-05T15:49:54.388Z,2266.67
2022-11-05T15:52:33.417Z,1623.53
2022-11-05T15:55:17.921Z,1651.30
2022-11-05T15:57:51.188Z,1650.17
2022-11-05T16:00:24.192Z,1727.50
2022-11-05T16:02:56.886Z,1802.83
2022-11-05T16:05:30.676Z,1750.77
2022-11-05T16:08:01.931Z,1794.93
2022-11-05T16:10:33.519Z,1763.07
2022-11-05T16:13:33.038Z,1721.87
2022-11-05T16:16:05.135Z,1713.53
2022-11-05T16:18:37.796Z,1778.73
2022-11-05T16:21:11.453Z,1753.90
2022-11-05T16:23:44.797Z,1700.50
2022-11-05T16:27:02.223Z,1702.27
2022-11-05T16:29:28.882Z,2266.67
2022-11-05T16:32:00.885Z,1740.40
2022-11-05T16:34:34.806Z,1760.57
2022-11-05T16:37:07.841Z,1791.97
2022-11-05T16:39:37.694Z,898.93
2022-11-05T16:42:39.749Z,1007.60
2022-11-05T16:45:13.644Z,1008.17
2022-11-05T16:47:44.773Z,2266.67
2022-11-05T16:50:24.503Z,1704.90
2022-11-05T16:52:55.783Z,1651.63
2022-11-05T16:55:25.561Z,2266.67
2022-11-05T16:57:56.786Z,2266.67
2022-11-05T17:00:26.664Z,1634.30
2022-11-05T17:02:56.775Z,1757.73
2022-11-05T17:05:28.607Z,1799.37
2022-11-05T17:08:01.128Z,1797.87
2022-11-05T17:10:31.263Z,747.27
2022-11-05T17:13:01.129Z,816.77
2022-11-05T17:15:35.327Z,1804.40
2022-11-05T17:18:05.931Z,1814.13
2022-11-05T17:20:41.096Z,2266.67
2022-11-05T17:23:15.505Z,2266.67
2022-11-05T17:25:48.320Z,2266.67
2022-11-05T17:28:19.624Z,1752.67
2022-11-05T17:30:53.016Z,1826.33
2022-11-05T17:33:23.940Z,1782.20
2022-11-05T17:35:54.693Z,1760.87
2022-11-05T17:38:26.870Z,579.33
2022-11-05T17:40:56.639Z,1770.90
2022-11-05T17:43:26.436Z,1819.77
2022-11-05T17:46:01.648Z,1775.23
2022-11-05T17:48:34.053Z,1773.83
2022-11-05T17:51:03.982Z,1825.57
2022-11-05T17:53:35.124Z,1810.07
2022-11-05T17:56:09.530Z,716.17
2022-11-05T17:58:40.279Z,592.50
2022-11-05T18:01:25.240Z,596.37
2022-11-05T18:03:55.191Z,1643.90
2022-11-05T18:06:25.051Z,2266.67
2022-11-05T18:08:56.158Z,2266.67
2022-11-05T18:11:25.926Z,1659.67
2022-11-05T18:13:55.698Z,1701.17
2022-11-05T18:16:25.551Z,1729.30
2022-11-05T18:18:55.378Z,1791.33
2022-11-05T18:21:25.200Z,1776.57
2022-11-05T18:23:56.403Z,733.77
2022-11-05T18:26:26.425Z,815.17
2022-11-05T18:28:56.239Z,830.13
2022-11-05T18:31:26.033Z,1819.57
2022-11-05T18:33:58.364Z,1051.43
2022-11-05T18:36:29.794Z,1846.83
2022-11-05T18:39:02.999Z,1848.17
2022-11-05T18:41:33.579Z,760.57
2022-11-05T18:44:05.158Z,1820.83
2022-11-05T18:49:25.177Z,1696.93
2022-11-05T18:51:55.017Z,1770.70
2022-11-05T18:54:26.203Z,1841.33
2022-11-05T18:56:56.073Z,1778.93
2022-11-05T18:59:41.192Z,1735.57
2022-11-05T19:02:12.191Z,2266.67
2022-11-05T19:05:00.455Z,2266.67
2022-11-05T19:07:36.192Z,2266.67
2022-11-05T19:10:08.820Z,2266.67
2022-11-05T19:12:38.639Z,2266.67
2022-11-05T19:15:09.808Z,2266.67
2022-11-05T19:17:39.646Z,1677.97
2022-11-05T19:20:10.469Z,1756.67
2022-11-05T19:22:40.335Z,1800.57
2022-11-05T19:25:11.791Z,592.43
2022-11-05T19:27:42.572Z,618.37
2022-11-05T19:30:12.741Z,786.03
2022-11-05T19:32:42.523Z,800.57
2022-11-05T19:35:12.330Z,1829.63
2022-11-05T19:37:42.129Z,848.20
2022-11-05T19:40:13.500Z,1842.63
2022-11-05T19:42:43.285Z,1831.27
2022-11-05T19:48:03.318Z,1725.43
2022-11-05T19:50:33.237Z,1736.27
2022-11-05T19:53:02.997Z,1727.07
2022-11-05T19:55:34.216Z,1698.43
2022-11-05T19:58:04.006Z,1673.03
2022-11-05T20:00:34.265Z,2266.67
2022-11-05T20:03:04.258Z,2266.67
2022-11-05T20:05:34.612Z,2266.67
2022-11-05T20:08:04.508Z,2266.67
2022-11-05T20:10:37.919Z,2266.67
2022-11-05T20:13:07.759Z,2266.67
2022-11-05T20:15:39.085Z,2266.67
2022-11-05T20:18:09.271Z,2266.67
2022-11-05T20:20:39.296Z,2266.67
2022-11-05T20:23:09.192Z,2266.67
2022-11-05T20:25:42.284Z,2266.67
2022-11-05T20:28:12.415Z,2266.67
2022-11-05T20:30:42.383Z,2266.67
2022-11-05T20:33:12.703Z,2266.67
2022-11-05T20:35:43.011Z,2266.67
2022-11-05T20:38:13.018Z,2266.67
2022-11-05T20:40:44.455Z,2266.67
2022-11-05T20:43:14.211Z,2266.67
2022-11-05T20:45:44.018Z,2266.67
2022-11-05T20:48:14.390Z,2266.67
2022-11-05T20:50:45.749Z,2266.67
2022-11-05T20:53:15.570Z,2266.67
2022-11-05T20:55:48.315Z,2266.67
2022-11-05T20:58:18.239Z,2266.67
2022-11-05T21:00:51.174Z,1722.43
2022-11-05T21:03:21.395Z,1766.27
2022-11-05T21:05:54.405Z,1790.97
2022-11-05T21:08:24.224Z,1835.77
2022-11-05T21:10:56.124Z,954.70
2022-11-05T21:13:26.046Z,1028.97
2022-11-05T21:15:57.432Z,1217.97
2022-11-05T21:18:30.164Z,1241.33
2022-11-05T21:21:00.811Z,1288.37
2022-11-05T21:23:30.676Z,1336.63
2022-11-05T21:26:04.550Z,1511.93
2022-11-05T21:28:34.944Z,1435.83
2022-11-05T21:31:06.952Z,1656.53
2022-11-05T21:33:36.963Z,1709.77
2022-11-05T21:36:08.526Z,1768.77
2022-11-05T21:38:38.962Z,1752.27
2022-11-05T21:41:12.345Z,1894.27
2022-11-05T21:43:42.760Z,1857.57
2022-11-05T21:46:14.050Z,1786.17
2022-11-05T21:48:43.982Z,1844.87
2022-11-05T21:51:33.880Z,1811.33
2022-11-05T21:54:29.689Z,1833.33
2022-11-05T21:57:18.477Z,1859.67
2022-11-05T21:59:52.268Z,1842.93
2022-11-05T22:02:24.757Z,1753.47
2022-11-05T22:04:56.295Z,1809.00
2022-11-05T22:07:29.065Z,1765.80
2022-11-05T22:09:58.898Z,1819.70
2022-11-05T22:12:30.238Z,1800.20
2022-11-05T22:15:00.254Z,1833.57
2022-11-05T22:17:30.199Z,1765.70
2022-11-05T22:20:00.414Z,1798.47
2022-11-05T22:22:30.254Z,1888.03
2022-11-05T22:25:00.049Z,1875.77
2022-11-05T22:27:31.195Z,1815.10
2022-11-05T22:30:00.969Z,1798.80
2022-11-05T22:32:30.738Z,1896.77
2022-11-05T22:35:00.534Z,1812.10
2022-11-05T22:37:30.328Z,1763.57
2022-11-05T22:40:00.244Z,2049.37
2022-11-05T22:42:31.532Z,1942.80
2022-11-05T22:45:01.431Z,1858.17
2022-11-05T22:47:31.215Z,1839.97
2022-11-05T22:50:01.401Z,1862.63
2022-11-05T22:52:32.644Z,1891.20
2022-11-05T22:55:05.224Z,1836.17
2022-11-05T22:57:36.393Z,1772.50
2022-11-05T23:00:13.556Z,1426.77
2022-11-05T23:02:43.701Z,1348.40
2022-11-05T23:05:15.771Z,1394.17
2022-11-05T23:08:05.466Z,1351.80
2022-11-05T23:10:52.905Z,1017.30
2022-11-05T23:13:24.043Z,833.00
2022-11-05T23:16:13.670Z,790.07
2022-11-05T23:19:01.085Z,1799.50
2022-11-05T23:21:48.417Z,1774.27
2022-11-05T23:24:18.253Z,1753.70
2022-11-05T23:26:51.033Z,1810.00
2022-11-05T23:29:25.754Z,742.23
2022-11-05T23:32:13.015Z,1769.83
2022-11-05T23:34:42.792Z,1735.00
2022-11-05T23:37:30.730Z,1756.00
2022-11-05T23:40:00.508Z,1709.27
2022-11-05T23:42:47.569Z,1759.27
2022-11-05T23:45:50.790Z,1727.37
2022-11-05T23:48:25.193Z,1662.97
2022-11-05T23:50:59.754Z,1684.77
2022-11-05T23:53:31.096Z,1662.60
2022-11-05T23:56:02.912Z,1650.70
2022-11-05T23:58:33.787Z,1650.20
